Time;durP1;ratioP1;P1;durP2;ratioP2;P2;SDS_P1;SDS_P2;PMS_P1;PMS_P2;Temp;Humidity;BMP_temperature;BMP_pressure;BME280_temperature;BME280_humidity;BME280_pressure;Samples;Min_cycle;Max_cycle;Signal;HPM_P1;HPM_P2
2022/05/03 00:02:13;;;;;;;13.90;9.77;;;;;;;;;;5018216;28;20383;-96
2022/05/03 00:05:02;;;;;;;9.70;8.65;;;;;;;;;;5014268;28;20084;-96
2022/05/03 00:07:38;;;;;;;11.45;10.10;;;;;;;;;;5013487;28;20144;-96
2022/05/03 00:10:08;;;;;;;14.05;10.18;;;;;;;;;;5015454;28;20117;-96
2022/05/03 00:12:41;;;;;;;11.02;9.77;;;;;;;;;;5014725;28;20057;-96
2022/05/03 00:15:09;;;;;;;10.82;9.60;;;;;;;;;;5013611;28;20057;-95
2022/05/03 00:17:38;;;;;;;11.20;10.00;;;;;;;;;;5013770;28;20050;-96
2022/05/03 00:20:06;;;;;;;10.65;9.52;;;;;;;;;;5013704;28;20605;-96
2022/05/03 00:22:35;;;;;;;14.65;10.50;;;;;;;;;;5014336;28;20494;-96
2022/05/03 00:25:03;;;;;;;14.35;11.30;;;;;;;;;;5032959;28;20054;-95
2022/05/03 00:27:30;;;;;;;14.23;11.38;;;;;;;;;;5022962;28;20099;-95
2022/05/03 00:29:58;;;;;;;13.52;10.75;;;;;;;;;;5014987;28;20451;-95
2022/05/03 00:32:26;;;;;;;13.98;11.00;;;;;;;;;;5015985;28;20096;-96
2022/05/03 00:34:54;;;;;;;17.20;11.45;;;;;;;;;;5014138;28;20049;-96
2022/05/03 00:37:22;;;;;;;12.43;10.20;;;;;;;;;;5014095;28;20061;-96
2022/05/03 00:39:49;;;;;;;12.60;10.70;;;;;;;;;;5013546;28;20053;-96
2022/05/03 00:42:26;;;;;;;15.02;11.05;;;;;;;;;;5013250;28;20084;-96
2022/05/03 00:44:58;;;;;;;12.57;10.18;;;;;;;;;;5013147;28;20100;-96
2022/05/03 00:47:36;;;;;;;12.52;10.98;;;;;;;;;;5013283;28;20042;-96
2022/05/03 00:50:09;;;;;;;16.40;11.45;;;;;;;;;;5013063;28;20060;-95
2022/05/03 00:52:54;;;;;;;15.68;11.82;;;;;;;;;;5013496;28;20069;-95
2022/05/03 00:55:24;;;;;;;17.45;11.75;;;;;;;;;;5013086;28;20053;-96
2022/05/03 00:58:07;;;;;;;13.52;11.50;;;;;;;;;;5013628;28;20474;-95
2022/05/03 01:00:38;;;;;;;14.80;10.70;;;;;;;;;;5013206;28;20054;-96
2022/05/03 01:03:17;;;;;;;12.65;11.35;;;;;;;;;;5012637;28;20077;-96
2022/05/03 01:06:03;;;;;;;13.73;11.32;;;;;;;;;;5013004;28;20084;-96
2022/05/03 01:08:37;;;;;;;13.40;11.75;;;;;;;;;;5012992;28;20054;-96
2022/05/03 01:11:10;;;;;;;13.70;12.07;;;;;;;;;;5013062;28;20116;-96
2022/05/03 01:13:42;;;;;;;13.25;11.45;;;;;;;;;;5012582;28;20132;-96
2022/05/03 01:16:22;;;;;;;19.30;11.98;;;;;;;;;;5012795;28;20556;-96
2022/05/03 01:18:54;;;;;;;15.95;12.20;;;;;;;;;;5014536;28;20062;-96
2022/05/03 01:21:33;;;;;;;15.77;12.23;;;;;;;;;;5016850;28;20054;-95
2022/05/03 01:24:08;;;;;;;14.85;13.32;;;;;;;;;;5017064;28;20113;-96
2022/05/03 01:26:45;;;;;;;16.88;11.73;;;;;;;;;;5017205;28;20269;-96
2022/05/03 01:29:39;;;;;;;14.38;12.88;;;;;;;;;;5016747;28;20105;-96
2022/05/03 01:32:07;;;;;;;15.82;12.68;;;;;;;;;;5013722;28;20050;-96
2022/05/03 01:34:35;;;;;;;15.82;12.15;;;;;;;;;;5017166;28;20461;-95
2022/05/03 01:37:02;;;;;;;14.38;12.07;;;;;;;;;;5017399;28;20149;-96
2022/05/03 01:39:48;;;;;;;13.60;12.07;;;;;;;;;;5027255;28;20041;-96
2022/05/03 01:42:16;;;;;;;13.68;12.30;;;;;;;;;;5034773;28;20076;-96
2022/05/03 01:44:53;;;;;;;13.80;12.40;;;;;;;;;;5017318;28;20058;-96
2022/05/03 01:47:21;;;;;;;17.90;13.40;;;;;;;;;;5019070;28;20493;-96
2022/05/03 01:52:55;;;;;;;13.68;10.98;;;;;;;;;;5017525;28;20076;-96
2022/05/03 01:55:34;;;;;;;15.93;12.05;;;;;;;;;;5016301;28;20050;-94
2022/05/03 01:58:15;;;;;;;13.20;11.68;;;;;;;;;;5016052;28;20053;-95
2022/05/03 02:00:44;;;;;;;13.65;11.45;;;;;;;;;;5016543;28;20089;-94
2022/05/03 02:03:37;;;;;;;15.15;11.80;;;;;;;;;;5015600;28;20042;-96
2022/05/03 02:06:13;;;;;;;14.73;12.50;;;;;;;;;;5012433;28;20065;-95
2022/05/03 02:08:53;;;;;;;15.98;13.35;;;;;;;;;;5015089;28;20049;-95
2022/05/03 02:11:31;;;;;;;14.85;12.95;;;;;;;;;;5015754;28;20141;-96
2022/05/03 02:17:14;;;;;;;14.65;12.80;;;;;;;;;;5016623;28;20088;-96
2022/05/03 02:19:58;;;;;;;17.90;13.70;;;;;;;;;;5016232;28;20072;-95
2022/05/03 02:22:28;;;;;;;19.73;13.60;;;;;;;;;;5015901;28;20049;-94
2022/05/03 02:25:00;;;;;;;19.73;14.52;;;;;;;;;;5015768;28;20473;-95
2022/05/03 02:27:31;;;;;;;17.83;14.05;;;;;;;;;;5015793;28;20490;-96
2022/05/03 02:29:59;;;;;;;19.45;14.07;;;;;;;;;;5016962;28;20059;-96
2022/05/03 02:32:46;;;;;;;15.98;14.13;;;;;;;;;;5016039;28;20552;-95
2022/05/03 02:35:21;;;;;;;16.10;13.20;;;;;;;;;;5016119;28;20117;-96
2022/05/03 02:37:51;;;;;;;18.83;14.82;;;;;;;;;;5017290;28;20069;-95
2022/05/03 02:40:22;;;;;;;19.13;14.60;;;;;;;;;;5015931;28;20104;-95
2022/05/03 02:42:51;;;;;;;16.20;13.68;;;;;;;;;;5015892;28;20072;-96
2022/05/03 02:45:18;;;;;;;19.33;14.63;;;;;;;;;;5016710;28;20418;-96
2022/05/03 02:47:55;;;;;;;16.15;14.20;;;;;;;;;;5017414;28;20465;-95
2022/05/03 02:50:28;;;;;;;19.02;14.85;;;;;;;;;;5015915;28;20050;-96
2022/05/03 02:52:55;;;;;;;;;;;;;;;;;;5016607;28;20053;-96
2022/05/03 02:55:28;;;;;;;14.75;13.10;;;;;;;;;;5025077;28;19948;-96
2022/05/03 02:57:56;;;;;;;17.58;13.20;;;;;;;;;;5030539;28;20053;-95
2022/05/03 03:03:09;;;;;;;17.35;14.13;;;;;;;;;;5017674;28;20593;-96
2022/05/03 03:05:44;;;;;;;18.75;14.60;;;;;;;;;;5017043;28;20465;-96
2022/05/03 03:08:13;;;;;;;25.00;14.25;;;;;;;;;;5016243;28;20050;-95
2022/05/03 03:10:47;;;;;;;16.85;13.43;;;;;;;;;;5015939;28;20108;-95
2022/05/03 03:13:35;;;;;;;13.95;12.38;;;;;;;;;;5016400;28;20041;-94
2022/05/03 03:16:12;;;;;;;16.65;13.70;;;;;;;;;;5017881;28;20050;-96
2022/05/03 03:18:42;;;;;;;20.15;14.05;;;;;;;;;;5016649;28;20057;-96
2022/05/03 03:21:15;;;;;;;18.88;13.75;;;;;;;;;;5020355;28;20065;-95
2022/05/03 03:23:42;;;;;;;16.83;14.32;;;;;;;;;;5018131;28;20050;-96
2022/05/03 03:26:10;;;;;;;16.98;14.90;;;;;;;;;;5015009;28;20144;-95
2022/05/03 03:28:38;;;;;;;21.42;15.10;;;;;;;;;;5016143;28;20111;-96
2022/05/03 03:31:08;;;;;;;23.23;16.30;;;;;;;;;;5015836;28;20080;-94
2022/05/03 03:33:37;;;;;;;20.00;15.40;;;;;;;;;;5016080;28;20054;-95
2022/05/03 03:36:06;;;;;;;20.50;15.75;;;;;;;;;;5018274;28;20050;-95
2022/05/03 03:38:39;;;;;;;19.50;16.23;;;;;;;;;;5018677;28;20077;-94
2022/05/03 03:41:15;;;;;;;22.77;15.20;;;;;;;;;;5018172;28;20046;-95
2022/05/03 03:43:46;;;;;;;19.75;15.63;;;;;;;;;;5016076;28;20061;-95
2022/05/03 03:46:13;;;;;;;23.48;16.63;;;;;;;;;;5015633;28;20089;-95
2022/05/03 03:48:41;;;;;;;20.95;17.08;;;;;;;;;;5016043;28;20548;-95
2022/05/03 03:51:08;;;;;;;19.88;16.50;;;;;;;;;;5018694;28;20080;-94
2022/05/03 03:53:36;;;;;;;22.73;17.30;;;;;;;;;;5016940;28;20061;-95
2022/05/03 03:56:04;;;;;;;23.73;17.92;;;;;;;;;;5015887;28;20117;-95
2022/05/03 03:58:34;;;;;;;22.80;16.77;;;;;;;;;;5016506;28;20521;-96
2022/05/03 04:01:02;;;;;;;20.90;17.38;;;;;;;;;;5015969;28;20084;-95
2022/05/03 04:03:31;;;;;;;26.65;17.60;;;;;;;;;;5015759;28;20054;-95
2022/05/03 04:05:58;;;;;;;22.45;17.55;;;;;;;;;;5014533;28;20049;-96
2022/05/03 04:08:26;;;;;;;26.55;18.70;;;;;;;;;;5014940;28;20551;-96
2022/05/03 04:10:53;;;;;;;21.42;17.92;;;;;;;;;;5022654;28;20053;-95
2022/05/03 04:13:23;;;;;;;22.40;18.13;;;;;;;;;;5029334;28;20056;-95
2022/05/03 04:15:52;;;;;;;22.75;18.67;;;;;;;;;;5014634;28;20058;-95
2022/05/03 04:18:19;;;;;;;23.52;19.25;;;;;;;;;;5014682;28;20108;-95
2022/05/03 04:20:47;;;;;;;26.80;20.83;;;;;;;;;;5013419;28;20046;-95
2022/05/03 04:23:21;;;;;;;25.67;19.60;;;;;;;;;;5013997;28;20081;-91
2022/05/03 04:25:53;;;;;;;23.35;18.48;;;;;;;;;;5014618;28;20045;-95
2022/05/03 04:28:20;;;;;;;25.20;18.73;;;;;;;;;;5013711;28;20049;-95
2022/05/03 04:30:48;;;;;;;24.98;18.90;;;;;;;;;;5014748;28;20081;-95
2022/05/03 04:33:15;;;;;;;28.52;19.85;;;;;;;;;;5014404;28;20490;-95
2022/05/03 04:35:47;;;;;;;26.70;21.10;;;;;;;;;;5014302;28;20422;-95
2022/05/03 04:38:14;;;;;;;26.15;21.55;;;;;;;;;;5013991;28;20080;-95
2022/05/03 04:40:42;;;;;;;29.73;22.45;;;;;;;;;;5014772;28;20084;-95
2022/05/03 04:43:09;;;;;;;33.30;22.60;;;;;;;;;;5014076;28;20092;-96
2022/05/03 04:45:39;;;;;;;32.30;24.48;;;;;;;;;;5013713;28;20058;-95
2022/05/03 04:48:09;;;;;;;29.17;23.27;;;;;;;;;;5012803;28;20104;-95
2022/05/03 04:50:36;;;;;;;32.92;25.15;;;;;;;;;;5013287;28;20407;-96
2022/05/03 04:53:04;;;;;;;32.55;24.77;;;;;;;;;;5012986;28;20061;-95
2022/05/03 04:55:31;;;;;;;37.90;30.10;;;;;;;;;;5013235;28;20140;-95
2022/05/03 04:57:58;;;;;;;43.00;35.55;;;;;;;;;;5013890;28;20107;-95
2022/05/03 05:00:31;;;;;;;38.83;31.95;;;;;;;;;;5014372;28;20093;-96
2022/05/03 05:02:59;;;;;;;47.15;34.75;;;;;;;;;;5014223;28;20049;-95
2022/05/03 05:05:33;;;;;;;91.47;69.70;;;;;;;;;;5016010;28;20074;-95
2022/05/03 05:08:07;;;;;;;42.20;35.50;;;;;;;;;;5015569;28;20050;-96
2022/05/03 05:10:34;;;;;;;44.35;32.88;;;;;;;;;;5015666;28;20049;-96
2022/05/03 05:13:02;;;;;;;36.45;31.58;;;;;;;;;;5017372;28;20433;-96
2022/05/03 05:15:36;;;;;;;;;;;;;;;;;;5001846;28;20046;-93
2022/05/03 05:18:13;;;;;;;22.67;17.75;;;;;;;;;;5017649;28;19921;-95
2022/05/03 05:20:41;;;;;;;17.30;13.80;;;;;;;;;;5017414;28;20073;-95
2022/05/03 05:23:09;;;;;;;14.02;10.32;;;;;;;;;;5017861;28;20100;-95
2022/05/03 05:25:48;;;;;;;11.13;8.50;;;;;;;;;;5022976;28;20113;-96
2022/05/03 05:28:17;;;;;;;11.05;8.50;;;;;;;;;;5032855;28;20054;-96
2022/05/03 05:30:45;;;;;;;9.43;7.35;;;;;;;;;;5019881;28;20492;-95
2022/05/03 05:33:15;;;;;;;12.10;6.80;;;;;;;;;;5018454;28;20076;-96
2022/05/03 05:35:43;;;;;;;8.45;6.25;;;;;;;;;;5015119;28;20112;-95
2022/05/03 05:38:14;;;;;;;12.10;7.40;;;;;;;;;;5014651;28;20411;-95
2022/05/03 05:40:41;;;;;;;14.38;7.50;;;;;;;;;;5014568;28;20064;-95
2022/05/03 05:43:09;;;;;;;21.40;10.10;;;;;;;;;;5016103;28;20054;-96
2022/05/03 05:45:37;;;;;;;12.93;7.45;;;;;;;;;;4997371;28;20058;-96
2022/05/03 05:48:12;;;;;;;15.13;7.82;;;;;;;;;;5013944;28;20066;-96
2022/05/03 05:50:40;;;;;;;13.45;8.18;;;;;;;;;;4999148;28;20057;-96
2022/05/03 05:53:34;;;;;;;11.90;6.82;;;;;;;;;;5017502;28;20101;-96
2022/05/03 05:56:03;;;;;;;9.55;6.65;;;;;;;;;;5014165;28;20064;-96
2022/05/03 05:58:30;;;;;;;10.75;6.57;;;;;;;;;;5013230;28;20145;-96
2022/05/03 06:00:58;;;;;;;10.02;6.07;;;;;;;;;;5012586;28;20050;-95
2022/05/03 06:03:27;;;;;;;7.88;5.53;;;;;;;;;;5012449;28;20092;-94
2022/05/03 06:05:55;;;;;;;9.23;5.22;;;;;;;;;;5014213;28;20073;-96
2022/05/03 06:08:22;;;;;;;5.95;5.15;;;;;;;;;;5017682;28;20104;-96
2022/05/03 06:10:49;;;;;;;7.25;5.53;;;;;;;;;;5018345;28;20108;-95
2022/05/03 06:13:19;;;;;;;8.05;5.50;;;;;;;;;;5001624;28;20142;-95
2022/05/03 06:15:48;;;;;;;13.75;6.05;;;;;;;;;;5015733;28;20054;-95
2022/05/03 06:18:16;;;;;;;10.52;5.40;;;;;;;;;;5015713;28;20054;-95
2022/05/03 06:20:43;;;;;;;8.82;5.32;;;;;;;;;;5015669;28;20100;-96
2022/05/03 06:23:12;;;;;;;7.38;5.97;;;;;;;;;;5015848;28;20053;-96
2022/05/03 06:25:40;;;;;;;8.55;5.45;;;;;;;;;;5015702;28;20084;-95
2022/05/03 06:28:07;;;;;;;5.55;4.85;;;;;;;;;;5015677;28;20076;-95
2022/05/03 06:30:35;;;;;;;11.55;5.10;;;;;;;;;;5015790;28;20477;-96
2022/05/03 06:33:02;;;;;;;5.43;4.60;;;;;;;;;;5016183;28;20457;-95
2022/05/03 06:35:29;;;;;;;8.57;4.82;;;;;;;;;;5016113;28;20077;-96
2022/05/03 06:37:57;;;;;;;4.40;4.10;;;;;;;;;;5015583;28;20484;-96
2022/05/03 06:40:24;;;;;;;5.82;4.72;;;;;;;;;;5016625;28;20061;-95
2022/05/03 06:42:54;;;;;;;8.43;4.97;;;;;;;;;;5027271;28;20088;-95
2022/05/03 06:45:22;;;;;;;5.53;5.03;;;;;;;;;;5024789;28;20130;-95
2022/05/03 06:47:50;;;;;;;5.10;4.60;;;;;;;;;;5015228;28;20136;-93
2022/05/03 06:50:17;;;;;;;9.93;4.47;;;;;;;;;;5015042;28;20138;-93
2022/05/03 06:52:44;;;;;;;5.22;4.78;;;;;;;;;;5015592;28;20545;-92
2022/05/03 06:55:12;;;;;;;4.80;4.15;;;;;;;;;;5014929;28;20552;-93
2022/05/03 06:57:39;;;;;;;5.40;4.40;;;;;;;;;;5014878;28;20494;-93
2022/05/03 07:00:08;;;;;;;8.93;5.30;;;;;;;;;;5014966;28;20448;-94
2022/05/03 07:02:35;;;;;;;5.57;4.20;;;;;;;;;;5014807;28;20050;-93
2022/05/03 07:05:04;;;;;;;8.30;4.43;;;;;;;;;;5014822;28;20058;-93
2022/05/03 07:07:32;;;;;;;4.78;4.07;;;;;;;;;;5014503;28;20144;-93
2022/05/03 07:10:02;;;;;;;5.47;4.90;;;;;;;;;;5014623;28;20547;-94
2022/05/03 07:12:30;;;;;;;4.95;4.43;;;;;;;;;;5014734;28;20132;-93
2022/05/03 07:14:58;;;;;;;4.85;4.40;;;;;;;;;;5014878;28;20046;-93
2022/05/03 07:22:58;;;;;;;5.93;5.40;;;;;;;;;;5016331;28;20107;-92
2022/05/03 07:25:26;;;;;;;9.02;6.13;;;;;;;;;;5014398;28;20050;-91
2022/05/03 07:27:53;;;;;;;8.60;5.72;;;;;;;;;;5014761;28;20100;-90
2022/05/03 07:30:21;;;;;;;6.47;5.88;;;;;;;;;;5014695;28;20133;-93
2022/05/03 07:32:48;;;;;;;7.72;5.90;;;;;;;;;;5013878;28;20501;-93
2022/05/03 07:35:16;;;;;;;8.52;5.80;;;;;;;;;;5014355;28;20050;-92
2022/05/03 07:37:43;;;;;;;10.10;5.93;;;;;;;;;;5013987;28;20073;-93
2022/05/03 07:40:11;;;;;;;9.30;6.13;;;;;;;;;;5014751;28;20124;-93
2022/05/03 07:42:38;;;;;;;9.88;6.25;;;;;;;;;;5015280;28;20045;-93
2022/05/03 07:45:06;;;;;;;7.32;5.35;;;;;;;;;;5014211;28;20494;-93
2022/05/03 07:47:33;;;;;;;10.60;5.80;;;;;;;;;;5012584;28;20132;-93
2022/05/03 07:50:01;;;;;;;6.68;5.57;;;;;;;;;;5014374;28;20065;-93
2022/05/03 07:52:28;;;;;;;6.10;5.50;;;;;;;;;;5014202;28;20050;-93
2022/05/03 07:54:56;;;;;;;5.43;4.97;;;;;;;;;;5014215;28;20049;-93
2022/05/03 07:57:24;;;;;;;6.20;5.55;;;;;;;;;;5017439;28;20045;-93
2022/05/03 07:59:55;;;;;;;6.20;5.53;;;;;;;;;;5030281;28;20050;-93
2022/05/03 08:02:22;;;;;;;8.55;6.28;;;;;;;;;;5015992;28;20077;-93
2022/05/03 08:04:51;;;;;;;7.93;5.93;;;;;;;;;;5013916;28;20049;-91
2022/05/03 08:07:18;;;;;;;7.07;6.40;;;;;;;;;;5013725;28;20084;-93
2022/05/03 08:09:46;;;;;;;7.85;5.45;;;;;;;;;;5013861;28;20070;-94
2022/05/03 08:12:14;;;;;;;8.75;5.80;;;;;;;;;;5013397;28;20100;-92
2022/05/03 08:14:41;;;;;;;6.32;5.35;;;;;;;;;;5013221;28;20062;-93
2022/05/03 08:17:09;;;;;;;6.18;5.55;;;;;;;;;;5013152;28;20054;-93
2022/05/03 08:19:37;;;;;;;8.07;5.82;;;;;;;;;;5013868;28;20050;-92
2022/05/03 08:22:04;;;;;;;7.75;6.03;;;;;;;;;;5014326;28;20080;-92
2022/05/03 08:24:32;;;;;;;8.52;6.22;;;;;;;;;;5013878;28;20136;-92
2022/05/03 08:27:00;;;;;;;6.57;5.85;;;;;;;;;;5013635;28;20077;-92
2022/05/03 08:29:29;;;;;;;9.40;5.78;;;;;;;;;;5012624;28;20049;-94
2022/05/03 08:31:56;;;;;;;12.13;6.43;;;;;;;;;;5014041;28;20237;-93
2022/05/03 08:34:24;;;;;;;11.20;6.20;;;;;;;;;;5013212;28;20423;-94
2022/05/03 08:42:27;;;;;;;7.80;5.93;;;;;;;;;;5014604;28;20046;-92
2022/05/03 08:44:56;;;;;;;8.95;6.53;;;;;;;;;;5013440;28;20410;-93
2022/05/03 08:47:25;;;;;;;10.00;6.47;;;;;;;;;;5013397;28;20049;-92
2022/05/03 08:49:53;;;;;;;6.65;5.95;;;;;;;;;;5012903;28;20049;-93
2022/05/03 08:52:21;;;;;;;10.65;6.40;;;;;;;;;;5013707;28;20054;-93
2022/05/03 08:54:49;;;;;;;6.68;5.88;;;;;;;;;;5013096;28;20088;-94
2022/05/03 08:57:25;;;;;;;8.75;5.43;;;;;;;;;;5013049;28;20056;-92
2022/05/03 08:59:54;;;;;;;8.57;6.88;;;;;;;;;;5013106;28;20050;-92
2022/05/03 09:02:21;;;;;;;9.50;7.03;;;;;;;;;;5013123;28;20050;-94
2022/05/03 09:04:48;;;;;;;9.23;5.95;;;;;;;;;;5013031;28;20081;-94
2022/05/03 09:07:17;;;;;;;11.77;6.53;;;;;;;;;;5013259;28;20506;-92
2022/05/03 09:09:46;;;;;;;18.98;6.93;;;;;;;;;;5013268;28;20074;-91
2022/05/03 09:12:23;;;;;;;8.10;6.20;;;;;;;;;;5014350;28;20502;-90
2022/05/03 09:14:51;;;;;;;7.03;6.35;;;;;;;;;;5025612;28;20058;-93
2022/05/03 09:17:38;;;;;;;8.93;6.50;;;;;;;;;;5017417;28;20140;-93
2022/05/03 09:26:09;;;;;;;8.07;6.63;;;;;;;;;;5013677;28;20061;-91
2022/05/03 09:28:43;;;;;;;7.47;6.55;;;;;;;;;;5014003;28;20085;-93
2022/05/03 09:31:10;;;;;;;6.72;5.43;;;;;;;;;;5016681;28;20100;-92
2022/05/03 09:33:38;;;;;;;6.13;5.07;;;;;;;;;;5013889;28;20068;-93
2022/05/03 09:36:11;;;;;;;8.30;5.85;;;;;;;;;;5012467;28;20129;-93
2022/05/03 09:38:56;;;;;;;8.73;6.35;;;;;;;;;;5014826;28;20089;-91
2022/05/03 09:41:23;;;;;;;11.30;6.50;;;;;;;;;;5016363;28;20067;-93
2022/05/03 09:44:08;;;;;;;8.90;5.60;;;;;;;;;;5016807;28;20145;-92
2022/05/03 09:46:50;;;;;;;7.68;6.28;;;;;;;;;;5017545;28;20081;-92
2022/05/03 09:49:19;;;;;;;6.90;6.30;;;;;;;;;;5016806;28;20406;-89
2022/05/03 09:51:48;;;;;;;10.43;6.13;;;;;;;;;;5017922;28;20132;-92
2022/05/03 09:54:16;;;;;;;6.35;5.50;;;;;;;;;;5016235;28;20046;-91
2022/05/03 09:56:47;;;;;;;8.77;6.15;;;;;;;;;;5017889;28;20076;-92
2022/05/03 09:59:15;;;;;;;9.02;5.15;;;;;;;;;;5016456;28;20145;-88
2022/05/03 10:01:43;;;;;;;5.70;4.38;;;;;;;;;;5016407;28;20140;-92
2022/05/03 10:04:10;;;;;;;5.72;4.25;;;;;;;;;;5015781;28;20100;-89
2022/05/03 10:06:38;;;;;;;10.73;4.72;;;;;;;;;;5016120;28;20053;-91
2022/05/03 10:09:05;;;;;;;7.57;5.03;;;;;;;;;;5017167;28;20073;-93
2022/05/03 10:11:34;;;;;;;5.72;4.80;;;;;;;;;;5015872;28;20141;-94
2022/05/03 10:14:01;;;;;;;8.38;4.22;;;;;;;;;;5016634;28;20077;-92
2022/05/03 10:22:04;;;;;;;6.60;4.65;;;;;;;;;;5017498;28;20046;-93
2022/05/03 10:24:31;;;;;;;4.15;3.85;;;;;;;;;;5016804;28;20049;-93
2022/05/03 10:27:05;;;;;;;4.68;4.22;;;;;;;;;;5016403;28;20050;-94
2022/05/03 10:29:36;;;;;;;4.63;3.60;;;;;;;;;;5025976;28;20048;-93
2022/05/03 10:32:06;;;;;;;9.20;5.10;;;;;;;;;;5027488;28;20135;-93
2022/05/03 10:34:40;;;;;;;5.22;4.18;;;;;;;;;;5015842;28;20056;-92
2022/05/03 10:37:07;;;;;;;6.95;4.55;;;;;;;;;;5016013;28;20042;-92
2022/05/03 10:39:35;;;;;;;9.40;4.68;;;;;;;;;;5023728;28;20053;-92
2022/05/03 10:42:11;;;;;;;6.60;4.82;;;;;;;;;;5015613;28;20133;-93
2022/05/03 10:44:40;;;;;;;6.00;4.30;;;;;;;;;;5015653;28;20518;-92
2022/05/03 10:47:09;;;;;;;6.47;4.63;;;;;;;;;;5015738;28;20065;-91
2022/05/03 10:49:56;;;;;;;12.15;4.75;;;;;;;;;;5015565;28;20081;-93
2022/05/03 10:52:23;;;;;;;4.57;4.10;;;;;;;;;;5014582;28;20454;-92
2022/05/03 10:55:07;;;;;;;5.25;4.75;;;;;;;;;;5015388;28;20085;-92
2022/05/03 10:57:54;;;;;;;9.90;5.20;;;;;;;;;;5015422;28;20394;-90
2022/05/03 11:00:40;;;;;;;6.50;4.80;;;;;;;;;;5016036;28;20132;-91
2022/05/03 11:03:18;;;;;;;7.13;5.80;;;;;;;;;;5015565;28;20056;-92
2022/05/03 11:06:05;;;;;;;7.70;5.30;;;;;;;;;;5015895;28;20053;-91
2022/05/03 11:08:32;;;;;;;9.27;5.43;;;;;;;;;;5014897;28;20134;-92
2022/05/03 11:10:59;;;;;;;5.72;5.20;;;;;;;;;;5014791;28;20552;-90
2022/05/03 11:13:37;;;;;;;5.35;4.85;;;;;;;;;;5015606;28;20046;-91
2022/05/03 11:16:36;;;;;;;7.95;5.07;;;;;;;;;;5014699;28;20128;-92
2022/05/03 11:19:10;;;;;;;6.72;5.43;;;;;;;;;;5004663;28;20100;-93
2022/05/03 11:21:38;;;;;;;6.85;4.50;;;;;;;;;;5014576;28;20056;-91
2022/05/03 11:24:05;;;;;;;6.90;4.85;;;;;;;;;;5015014;28;20409;-94
2022/05/03 11:26:32;;;;;;;6.45;4.93;;;;;;;;;;5014827;28;20073;-90
2022/05/03 11:29:02;;;;;;;5.90;4.97;;;;;;;;;;5014838;28;20116;-93
2022/05/03 11:31:29;;;;;;;8.73;4.78;;;;;;;;;;5015138;28;20049;-91
2022/05/03 11:33:58;;;;;;;5.90;4.32;;;;;;;;;;5014374;28;20076;-93
2022/05/03 11:36:26;;;;;;;7.70;5.45;;;;;;;;;;5014190;28;20120;-94
2022/05/03 11:38:54;;;;;;;6.75;4.70;;;;;;;;;;5014110;28;20474;-91
2022/05/03 11:41:23;;;;;;;7.60;5.30;;;;;;;;;;5015166;28;20045;-93
2022/05/03 11:43:50;;;;;;;5.55;5.00;;;;;;;;;;5017034;28;20084;-91
2022/05/03 11:46:21;;;;;;;8.82;5.50;;;;;;;;;;5031339;28;20050;-90
2022/05/03 11:49:01;;;;;;;7.13;5.28;;;;;;;;;;5018234;28;20406;-90
2022/05/03 11:57:06;;;;;;;9.93;4.60;;;;;;;;;;5015091;28;20194;-94
2022/05/03 11:59:33;;;;;;;5.07;4.20;;;;;;;;;;5015037;28;20096;-91
2022/05/03 12:02:12;;;;;;;6.63;4.47;;;;;;;;;;5017185;28;20052;-92
2022/05/03 12:04:40;;;;;;;11.43;4.45;;;;;;;;;;5018083;28;20109;-92
2022/05/03 12:07:07;;;;;;;6.88;4.63;;;;;;;;;;5018088;28;20056;-94
2022/05/03 12:09:35;;;;;;;7.50;4.60;;;;;;;;;;5014062;28;20046;-93
2022/05/03 12:14:48;;;;;;;10.80;4.15;;;;;;;;;;5015285;28;20124;-92
2022/05/03 12:17:16;;;;;;;10.55;4.78;;;;;;;;;;5014875;28;20081;-92
2022/05/03 12:19:45;;;;;;;4.63;4.22;;;;;;;;;;5013522;28;20053;-91
2022/05/03 12:22:15;;;;;;;4.20;3.70;;;;;;;;;;5014305;28;20054;-92
2022/05/03 12:24:47;;;;;;;6.45;4.30;;;;;;;;;;5013191;28;20137;-93
2022/05/03 12:27:16;;;;;;;7.65;3.83;;;;;;;;;;5013857;28;20409;-90
2022/05/03 12:29:47;;;;;;;8.27;3.95;;;;;;;;;;5014748;28;20125;-93
2022/05/03 12:32:16;;;;;;;6.07;3.97;;;;;;;;;;5014642;28;20061;-93
2022/05/03 12:35:01;;;;;;;9.90;3.80;;;;;;;;;;5013469;28;20054;-92
2022/05/03 12:37:29;;;;;;;4.63;3.58;;;;;;;;;;5012980;28;20050;-89
2022/05/03 12:40:00;;;;;;;7.38;4.07;;;;;;;;;;5013766;28;20052;-91
2022/05/03 12:42:27;;;;;;;7.03;4.10;;;;;;;;;;5014210;28;20073;-93
2022/05/03 12:44:57;;;;;;;5.43;3.47;;;;;;;;;;5013545;28;20092;-92
2022/05/03 12:47:26;;;;;;;5.90;3.90;;;;;;;;;;5014096;28;20053;-92
2022/05/03 12:49:54;;;;;;;6.35;3.42;;;;;;;;;;5013719;28;20046;-92
2022/05/03 12:52:21;;;;;;;6.50;3.40;;;;;;;;;;5013987;28;20515;-94
2022/05/03 12:54:48;;;;;;;3.25;3.05;;;;;;;;;;5012805;28;20050;-92
2022/05/03 13:00:01;;;;;;;5.65;3.40;;;;;;;;;;5017099;28;20073;-91
2022/05/03 13:02:29;;;;;;;4.97;3.92;;;;;;;;;;5027312;28;20426;-90
2022/05/03 13:04:56;;;;;;;7.88;4.00;;;;;;;;;;5013748;28;20060;-89
2022/05/03 13:07:23;;;;;;;12.18;4.75;;;;;;;;;;5015362;28;20401;-90
2022/05/03 13:09:50;;;;;;;8.45;4.07;;;;;;;;;;5013795;28;20129;-92
2022/05/03 13:12:18;;;;;;;4.25;3.95;;;;;;;;;;5013636;28;20153;-91
2022/05/03 13:14:45;;;;;;;9.93;4.85;;;;;;;;;;5017357;28;20049;-93
2022/05/03 13:17:15;;;;;;;5.75;4.70;;;;;;;;;;5016983;28;20173;-94
2022/05/03 13:19:42;;;;;;;4.32;3.92;;;;;;;;;;5016934;28;20061;-91
2022/05/03 13:22:10;;;;;;;7.60;3.92;;;;;;;;;;5016619;28;20052;-91
2022/05/03 13:24:37;;;;;;;10.95;4.30;;;;;;;;;;5017612;28;20073;-93
2022/05/03 13:27:04;;;;;;;4.45;4.00;;;;;;;;;;5018601;28;20054;-92
2022/05/03 13:29:31;;;;;;;5.15;3.95;;;;;;;;;;5018155;28;20125;-92
2022/05/03 13:32:02;;;;;;;5.60;3.40;;;;;;;;;;5019472;28;20085;-92
2022/05/03 13:34:30;;;;;;;7.90;3.90;;;;;;;;;;5019298;28;20124;-92
2022/05/03 13:42:29;;;;;;;4.65;3.80;;;;;;;;;;5019558;28;20461;-91
2022/05/03 13:44:56;;;;;;;3.25;3.05;;;;;;;;;;5018180;28;20085;-92
2022/05/03 13:47:23;;;;;;;4.70;3.72;;;;;;;;;;5017752;28;20100;-92
2022/05/03 13:49:50;;;;;;;9.77;3.60;;;;;;;;;;5017522;28;20110;-93
2022/05/03 13:52:19;;;;;;;7.70;3.80;;;;;;;;;;5015660;28;20387;-92
2022/05/03 13:54:46;;;;;;;4.07;3.10;;;;;;;;;;5016531;28;20104;-91
2022/05/03 13:57:14;;;;;;;5.40;3.80;;;;;;;;;;5016354;28;20063;-91
2022/05/03 13:59:41;;;;;;;4.93;3.53;;;;;;;;;;5020318;28;20050;-91
2022/05/03 14:02:10;;;;;;;5.05;3.30;;;;;;;;;;5016492;28;20081;-92
2022/05/03 14:04:38;;;;;;;3.10;2.80;;;;;;;;;;5017035;28;20085;-92
2022/05/03 14:07:07;;;;;;;6.18;3.45;;;;;;;;;;5016432;28;20128;-92
2022/05/03 14:09:34;;;;;;;5.63;3.53;;;;;;;;;;5017464;28;20100;-93
2022/05/03 14:12:03;;;;;;;7.22;3.63;;;;;;;;;;5018614;28;20129;-93
2022/05/03 14:14:30;;;;;;;6.00;3.72;;;;;;;;;;5022663;28;20119;-91
2022/05/03 14:16:58;;;;;;;4.72;3.65;;;;;;;;;;5030001;28;20085;-94
2022/05/03 14:19:26;;;;;;;7.55;4.10;;;;;;;;;;5023244;28;20054;-95
2022/05/03 14:21:56;;;;;;;6.55;4.05;;;;;;;;;;5016707;28;20102;-94
2022/05/03 14:24:23;;;;;;;4.13;3.70;;;;;;;;;;5017606;28;20064;-94
2022/05/03 14:26:51;;;;;;;7.88;3.60;;;;;;;;;;5016115;28;20092;-92
2022/05/03 14:29:18;;;;;;;4.28;3.40;;;;;;;;;;5016799;28;20476;-93
2022/05/03 14:31:46;;;;;;;5.80;3.40;;;;;;;;;;5018183;28;20073;-91
2022/05/03 14:34:14;;;;;;;11.10;3.53;;;;;;;;;;5019020;28;20120;-93
2022/05/03 14:36:42;;;;;;;3.70;3.40;;;;;;;;;;5022936;28;20046;-91
2022/05/03 14:39:09;;;;;;;5.43;3.90;;;;;;;;;;5022025;28;20444;-92
2022/05/03 14:41:56;;;;;;;5.30;3.60;;;;;;;;;;5019546;28;20050;-91
2022/05/03 14:44:23;;;;;;;3.65;3.33;;;;;;;;;;5023937;28;20076;-91
2022/05/03 14:46:51;;;;;;;6.70;3.25;;;;;;;;;;5020191;28;20046;-92
2022/05/03 14:49:18;;;;;;;5.80;3.78;;;;;;;;;;5028030;28;20050;-92
2022/05/03 14:51:46;;;;;;;3.83;3.45;;;;;;;;;;5025597;28;20050;-90
2022/05/03 14:54:13;;;;;;;7.35;3.45;;;;;;;;;;5025469;28;20053;-92
2022/05/03 15:05:06;;;;;;;6.75;2.67;;;;;;;;;;5020686;28;20050;-91
2022/05/03 15:07:34;;;;;;;6.35;4.18;;;;;;;;;;5015322;28;20461;-92
2022/05/03 15:10:01;;;;;;;6.93;4.22;;;;;;;;;;5016782;28;20045;-94
2022/05/03 15:12:29;;;;;;;5.43;3.70;;;;;;;;;;5016848;28;20054;-88
2022/05/03 15:14:56;;;;;;;5.85;4.03;;;;;;;;;;5014945;28;20046;-93
2022/05/03 15:17:23;;;;;;;8.35;3.70;;;;;;;;;;5015656;28;20062;-93
2022/05/03 15:19:51;;;;;;;5.63;3.53;;;;;;;;;;5015099;28;20054;-91
2022/05/03 15:24:35;;;;;;;5.40;3.60;;;;;;;;;;5016130;28;20460;-90
2022/05/03 15:25:08;;;;;;;4.30;3.47;;;;;;;;;;5016051;28;20077;-93
2022/05/03 15:27:35;;;;;;;6.13;3.75;;;;;;;;;;5015922;28;20080;-95
2022/05/03 15:30:03;;;;;;;4.90;3.60;;;;;;;;;;5004269;28;20073;-93
2022/05/03 15:32:32;;;;;;;4.25;3.65;;;;;;;;;;5032944;28;20065;-94
2022/05/03 15:35:01;;;;;;;7.22;3.80;;;;;;;;;;5023683;28;20065;-88
2022/05/03 15:37:28;;;;;;;5.28;4.78;;;;;;;;;;5016923;28;20057;-93
2022/05/03 15:39:56;;;;;;;6.53;4.22;;;;;;;;;;5015943;28;20123;-90
2022/05/03 15:42:24;;;;;;;7.32;4.10;;;;;;;;;;5014683;28;20096;-89
2022/05/03 15:44:53;;;;;;;5.05;4.53;;;;;;;;;;5015516;28;20120;-92
2022/05/03 15:47:22;;;;;;;20.33;5.60;;;;;;;;;;5017325;28;20049;-94
2022/05/03 15:49:49;;;;;;;6.85;4.35;;;;;;;;;;5017384;28;20046;-94